sensor_id;sensor_type;location;lat;lon;timestamp;P1;durP1;ratioP1;P2;durP2;ratioP2
49147;SDS011;41980;45.550;12.070;2022-12-18T00:03:52;8.18;;;5.65;;
49147;SDS011;41980;45.550;12.070;2022-12-18T00:09:55;7.80;;;5.22;;
49147;SDS011;41980;45.550;12.070;2022-12-18T00:22:08;9.32;;;6.90;;
49147;SDS011;41980;45.550;12.070;2022-12-18T00:28:10;8.15;;;6.18;;
49147;SDS011;41980;45.550;12.070;2022-12-18T00:34:13;11.30;;;6.45;;
49147;SDS011;41980;45.550;12.070;2022-12-18T00:40:15;7.63;;;5.57;;
49147;SDS011;41980;45.550;12.070;2022-12-18T00:46:17;8.85;;;5.85;;
49147;SDS011;41980;45.550;12.070;2022-12-18T00:58:21;7.40;;;5.32;;
49147;SDS011;41980;45.550;12.070;2022-12-18T01:04:23;6.32;;;4.70;;
49147;SDS011;41980;45.550;12.070;2022-12-18T01:16:27;6.28;;;4.63;;
49147;SDS011;41980;45.550;12.070;2022-12-18T01:22:29;6.90;;;4.85;;
49147;SDS011;41980;45.550;12.070;2022-12-18T01:34:34;7.45;;;5.70;;
49147;SDS011;41980;45.550;12.070;2022-12-18T01:40:38;7.30;;;5.10;;
49147;SDS011;41980;45.550;12.070;2022-12-18T01:46:40;8.85;;;6.60;;
49147;SDS011;41980;45.550;12.070;2022-12-18T01:52:43;7.63;;;5.38;;
49147;SDS011;41980;45.550;12.070;2022-12-18T02:05:09;7.68;;;5.30;;
49147;SDS011;41980;45.550;12.070;2022-12-18T02:17:46;8.18;;;5.60;;
49147;SDS011;41980;45.550;12.070;2022-12-18T02:30:11;8.20;;;5.53;;
49147;SDS011;41980;45.550;12.070;2022-12-18T02:36:14;6.60;;;4.43;;
49147;SDS011;41980;45.550;12.070;2022-12-18T02:42:18;7.60;;;4.53;;
49147;SDS011;41980;45.550;12.070;2022-12-18T02:48:25;6.00;;;4.10;;
49147;SDS011;41980;45.550;12.070;2022-12-18T03:00:52;5.85;;;3.80;;
49147;SDS011;41980;45.550;12.070;2022-12-18T03:07:04;5.80;;;3.47;;
49147;SDS011;41980;45.550;12.070;2022-12-18T03:13:13;5.40;;;3.53;;
49147;SDS011;41980;45.550;12.070;2022-12-18T03:19:22;5.88;;;3.53;;
49147;SDS011;41980;45.550;12.070;2022-12-18T03:25:33;6.50;;;4.10;;
49147;SDS011;41980;45.550;12.070;2022-12-18T03:31:39;6.00;;;3.72;;
49147;SDS011;41980;45.550;12.070;2022-12-18T03:37:44;6.22;;;4.05;;
49147;SDS011;41980;45.550;12.070;2022-12-18T03:56:15;5.93;;;3.80;;
49147;SDS011;41980;45.550;12.070;2022-12-18T04:02:19;6.03;;;4.45;;
49147;SDS011;41980;45.550;12.070;2022-12-18T04:08:24;6.70;;;4.70;;
49147;SDS011;41980;45.550;12.070;2022-12-18T04:14:36;5.30;;;3.80;;
49147;SDS011;41980;45.550;12.070;2022-12-18T04:20:42;6.63;;;3.83;;
49147;SDS011;41980;45.550;12.070;2022-12-18T04:26:46;6.35;;;4.10;;
49147;SDS011;41980;45.550;12.070;2022-12-18T04:32:51;6.43;;;3.88;;
49147;SDS011;41980;45.550;12.070;2022-12-18T04:38:55;6.35;;;3.70;;
49147;SDS011;41980;45.550;12.070;2022-12-18T04:44:57;6.65;;;4.18;;
49147;SDS011;41980;45.550;12.070;2022-12-18T04:50:59;6.65;;;4.50;;
49147;SDS011;41980;45.550;12.070;2022-12-18T04:57:01;6.07;;;3.92;;
49147;SDS011;41980;45.550;12.070;2022-12-18T05:03:03;6.93;;;4.63;;
49147;SDS011;41980;45.550;12.070;2022-12-18T05:09:06;7.30;;;5.00;;
49147;SDS011;41980;45.550;12.070;2022-12-18T05:15:08;6.78;;;4.70;;
49147;SDS011;41980;45.550;12.070;2022-12-18T05:27:12;6.30;;;4.00;;
49147;SDS011;41980;45.550;12.070;2022-12-18T05:33:14;6.35;;;3.42;;
49147;SDS011;41980;45.550;12.070;2022-12-18T05:39:16;5.00;;;3.70;;
49147;SDS011;41980;45.550;12.070;2022-12-18T05:51:21;6.75;;;4.00;;
49147;SDS011;41980;45.550;12.070;2022-12-18T05:57:24;5.28;;;3.30;;
49147;SDS011;41980;45.550;12.070;2022-12-18T06:09:28;7.30;;;4.53;;
49147;SDS011;41980;45.550;12.070;2022-12-18T06:15:30;6.28;;;4.20;;
49147;SDS011;41980;45.550;12.070;2022-12-18T06:21:33;7.70;;;5.15;;
49147;SDS011;41980;45.550;12.070;2022-12-18T06:27:35;7.78;;;4.82;;
49147;SDS011;41980;45.550;12.070;2022-12-18T06:33:37;9.35;;;6.55;;
49147;SDS011;41980;45.550;12.070;2022-12-18T06:39:39;7.88;;;5.32;;
49147;SDS011;41980;45.550;12.070;2022-12-18T06:51:43;9.38;;;5.47;;
49147;SDS011;41980;45.550;12.070;2022-12-18T06:57:45;8.50;;;5.53;;
49147;SDS011;41980;45.550;12.070;2022-12-18T07:09:52;7.45;;;4.82;;
49147;SDS011;41980;45.550;12.070;2022-12-18T07:21:56;9.43;;;5.68;;
49147;SDS011;41980;45.550;12.070;2022-12-18T07:27:58;8.38;;;5.68;;
49147;SDS011;41980;45.550;12.070;2022-12-18T07:34:00;8.43;;;5.32;;
49147;SDS011;41980;45.550;12.070;2022-12-18T07:40:01;7.80;;;4.90;;
49147;SDS011;41980;45.550;12.070;2022-12-18T07:46:06;8.60;;;5.28;;
49147;SDS011;41980;45.550;12.070;2022-12-18T07:52:09;9.85;;;6.38;;
49147;SDS011;41980;45.550;12.070;2022-12-18T07:58:13;10.18;;;6.53;;
49147;SDS011;41980;45.550;12.070;2022-12-18T08:04:17;10.25;;;6.10;;
49147;SDS011;41980;45.550;12.070;2022-12-18T08:22:24;8.02;;;4.88;;
49147;SDS011;41980;45.550;12.070;2022-12-18T08:34:30;9.60;;;6.20;;
49147;SDS011;41980;45.550;12.070;2022-12-18T08:40:32;11.60;;;7.13;;
49147;SDS011;41980;45.550;12.070;2022-12-18T08:46:37;11.45;;;7.55;;
49147;SDS011;41980;45.550;12.070;2022-12-18T08:52:41;11.32;;;7.13;;
49147;SDS011;41980;45.550;12.070;2022-12-18T08:58:43;12.90;;;8.88;;
49147;SDS011;41980;45.550;12.070;2022-12-18T09:10:48;11.63;;;7.72;;
49147;SDS011;41980;45.550;12.070;2022-12-18T09:16:52;11.43;;;7.15;;
49147;SDS011;41980;45.550;12.070;2022-12-18T09:28:57;10.63;;;7.47;;
49147;SDS011;41980;45.550;12.070;2022-12-18T09:34:59;10.25;;;6.78;;
49147;SDS011;41980;45.550;12.070;2022-12-18T09:41:17;10.25;;;6.07;;
49147;SDS011;41980;45.550;12.070;2022-12-18T09:47:37;10.15;;;6.50;;
49147;SDS011;41980;45.550;12.070;2022-12-18T09:53:44;11.18;;;6.68;;
49147;SDS011;41980;45.550;12.070;2022-12-18T09:59:54;11.25;;;7.80;;
49147;SDS011;41980;45.550;12.070;2022-12-18T10:06:15;7.82;;;5.40;;
49147;SDS011;41980;45.550;12.070;2022-12-18T10:12:34;10.73;;;6.90;;
49147;SDS011;41980;45.550;12.070;2022-12-18T10:18:56;13.15;;;8.55;;
49147;SDS011;41980;45.550;12.070;2022-12-18T10:25:23;12.55;;;8.70;;
49147;SDS011;41980;45.550;12.070;2022-12-18T10:31:31;10.13;;;7.07;;
49147;SDS011;41980;45.550;12.070;2022-12-18T10:37:34;10.15;;;7.43;;
49147;SDS011;41980;45.550;12.070;2022-12-18T10:43:37;10.18;;;6.68;;
49147;SDS011;41980;45.550;12.070;2022-12-18T10:49:46;10.40;;;7.18;;
49147;SDS011;41980;45.550;12.070;2022-12-18T10:55:51;11.60;;;7.75;;
49147;SDS011;41980;45.550;12.070;2022-12-18T11:01:59;11.68;;;8.48;;
49147;SDS011;41980;45.550;12.070;2022-12-18T11:08:02;10.77;;;7.30;;
49147;SDS011;41980;45.550;12.070;2022-12-18T11:14:05;10.82;;;7.10;;
49147;SDS011;41980;45.550;12.070;2022-12-18T11:26:39;8.45;;;5.90;;
49147;SDS011;41980;45.550;12.070;2022-12-18T11:32:45;11.13;;;8.25;;
49147;SDS011;41980;45.550;12.070;2022-12-18T11:38:52;12.05;;;7.07;;
49147;SDS011;41980;45.550;12.070;2022-12-18T11:44:59;10.65;;;7.32;;
49147;SDS011;41980;45.550;12.070;2022-12-18T11:51:05;11.38;;;7.60;;
49147;SDS011;41980;45.550;12.070;2022-12-18T11:57:20;9.60;;;6.57;;
49147;SDS011;41980;45.550;12.070;2022-12-18T12:16:57;7.90;;;5.47;;
49147;SDS011;41980;45.550;12.070;2022-12-18T12:30:03;8.77;;;5.65;;
49147;SDS011;41980;45.550;12.070;2022-12-18T12:42:47;7.78;;;5.28;;
49147;SDS011;41980;45.550;12.070;2022-12-18T12:49:20;6.95;;;5.00;;
49147;SDS011;41980;45.550;12.070;2022-12-18T12:55:56;9.32;;;5.68;;
49147;SDS011;41980;45.550;12.070;2022-12-18T13:08:34;9.77;;;6.38;;
49147;SDS011;41980;45.550;12.070;2022-12-18T13:21:53;10.32;;;7.03;;
49147;SDS011;41980;45.550;12.070;2022-12-18T13:28:58;7.73;;;4.80;;
49147;SDS011;41980;45.550;12.070;2022-12-18T13:35:52;8.07;;;5.38;;
49147;SDS011;41980;45.550;12.070;2022-12-18T13:49:53;5.93;;;4.13;;
49147;SDS011;41980;45.550;12.070;2022-12-18T13:56:02;6.90;;;4.30;;
49147;SDS011;41980;45.550;12.070;2022-12-18T14:02:11;7.55;;;4.88;;
49147;SDS011;41980;45.550;12.070;2022-12-18T14:08:20;7.20;;;4.30;;
49147;SDS011;41980;45.550;12.070;2022-12-18T14:14:31;5.75;;;4.07;;
49147;SDS011;41980;45.550;12.070;2022-12-18T14:20:40;6.05;;;3.85;;
49147;SDS011;41980;45.550;12.070;2022-12-18T14:26:54;4.85;;;3.40;;
49147;SDS011;41980;45.550;12.070;2022-12-18T14:33:22;5.57;;;3.75;;
49147;SDS011;41980;45.550;12.070;2022-12-18T14:39:34;4.60;;;3.00;;
49147;SDS011;41980;45.550;12.070;2022-12-18T14:45:39;5.43;;;3.25;;
49147;SDS011;41980;45.550;12.070;2022-12-18T14:52:27;5.03;;;3.10;;
49147;SDS011;41980;45.550;12.070;2022-12-18T15:05:52;4.75;;;3.20;;
49147;SDS011;41980;45.550;12.070;2022-12-18T15:18:49;6.15;;;4.75;;
49147;SDS011;41980;45.550;12.070;2022-12-18T15:24:51;5.78;;;3.78;;
49147;SDS011;41980;45.550;12.070;2022-12-18T15:30:58;12.88;;;4.72;;
49147;SDS011;41980;45.550;12.070;2022-12-18T15:37:01;5.30;;;3.30;;
49147;SDS011;41980;45.550;12.070;2022-12-18T15:49:22;4.88;;;3.47;;
49147;SDS011;41980;45.550;12.070;2022-12-18T15:55:26;5.18;;;3.90;;
49147;SDS011;41980;45.550;12.070;2022-12-18T16:01:46;4.93;;;3.05;;
49147;SDS011;41980;45.550;12.070;2022-12-18T16:07:49;7.75;;;5.47;;
49147;SDS011;41980;45.550;12.070;2022-12-18T16:19:53;5.68;;;3.47;;
49147;SDS011;41980;45.550;12.070;2022-12-18T16:31:59;7.60;;;5.30;;
49147;SDS011;41980;45.550;12.070;2022-12-18T16:38:02;8.68;;;6.25;;
49147;SDS011;41980;45.550;12.070;2022-12-18T16:44:04;8.43;;;5.75;;
49147;SDS011;41980;45.550;12.070;2022-12-18T16:50:14;9.82;;;5.88;;
49147;SDS011;41980;45.550;12.070;2022-12-18T16:56:21;10.70;;;7.13;;
49147;SDS011;41980;45.550;12.070;2022-12-18T17:02:44;12.48;;;9.65;;
49147;SDS011;41980;45.550;12.070;2022-12-18T17:15:39;20.75;;;13.55;;
49147;SDS011;41980;45.550;12.070;2022-12-18T17:22:36;17.83;;;11.20;;
49147;SDS011;41980;45.550;12.070;2022-12-18T17:29:41;15.93;;;10.77;;
49147;SDS011;41980;45.550;12.070;2022-12-18T17:42:18;16.25;;;12.00;;
49147;SDS011;41980;45.550;12.070;2022-12-18T17:48:20;24.25;;;15.00;;
49147;SDS011;41980;45.550;12.070;2022-12-18T17:54:41;19.00;;;12.30;;
49147;SDS011;41980;45.550;12.070;2022-12-18T18:01:17;17.60;;;12.32;;
49147;SDS011;41980;45.550;12.070;2022-12-18T18:07:53;24.88;;;17.75;;
49147;SDS011;41980;45.550;12.070;2022-12-18T18:14:16;26.55;;;19.55;;
49147;SDS011;41980;45.550;12.070;2022-12-18T18:20:42;37.83;;;29.45;;
49147;SDS011;41980;45.550;12.070;2022-12-18T18:27:29;43.47;;;30.20;;
49147;SDS011;41980;45.550;12.070;2022-12-18T18:34:01;38.03;;;26.83;;
49147;SDS011;41980;45.550;12.070;2022-12-18T18:40:22;37.67;;;27.63;;
49147;SDS011;41980;45.550;12.070;2022-12-18T18:46:54;35.03;;;25.35;;
49147;SDS011;41980;45.550;12.070;2022-12-18T18:53:39;45.53;;;30.75;;
49147;SDS011;41980;45.550;12.070;2022-12-18T19:00:32;30.05;;;19.05;;
49147;SDS011;41980;45.550;12.070;2022-12-18T19:06:39;44.85;;;30.90;;
49147;SDS011;41980;45.550;12.070;2022-12-18T19:12:58;51.70;;;35.85;;
49147;SDS011;41980;45.550;12.070;2022-12-18T19:19:26;27.25;;;19.85;;
49147;SDS011;41980;45.550;12.070;2022-12-18T19:25:37;23.08;;;16.55;;
49147;SDS011;41980;45.550;12.070;2022-12-18T19:32:18;31.02;;;22.13;;
49147;SDS011;41980;45.550;12.070;2022-12-18T19:38:44;25.30;;;16.60;;
49147;SDS011;41980;45.550;12.070;2022-12-18T19:45:54;32.78;;;24.48;;
49147;SDS011;41980;45.550;12.070;2022-12-18T19:52:18;30.90;;;21.35;;
49147;SDS011;41980;45.550;12.070;2022-12-18T19:58:20;28.05;;;19.48;;
49147;SDS011;41980;45.550;12.070;2022-12-18T20:04:29;34.53;;;24.55;;
49147;SDS011;41980;45.550;12.070;2022-12-18T20:11:17;23.73;;;15.82;;
49147;SDS011;41980;45.550;12.070;2022-12-18T20:17:24;37.40;;;26.70;;
49147;SDS011;41980;45.550;12.070;2022-12-18T20:23:36;44.58;;;33.30;;
49147;SDS011;41980;45.550;12.070;2022-12-18T20:29:45;41.90;;;28.55;;
49147;SDS011;41980;45.550;12.070;2022-12-18T20:35:51;56.38;;;41.65;;
49147;SDS011;41980;45.550;12.070;2022-12-18T20:41:54;41.33;;;30.65;;
49147;SDS011;41980;45.550;12.070;2022-12-18T20:48:00;49.92;;;37.58;;
49147;SDS011;41980;45.550;12.070;2022-12-18T20:54:02;57.03;;;40.88;;
49147;SDS011;41980;45.550;12.070;2022-12-18T21:00:06;54.30;;;39.35;;
49147;SDS011;41980;45.550;12.070;2022-12-18T21:06:29;50.25;;;36.15;;
49147;SDS011;41980;45.550;12.070;2022-12-18T21:12:37;32.75;;;23.17;;
49147;SDS011;41980;45.550;12.070;2022-12-18T21:18:51;37.40;;;25.60;;
49147;SDS011;41980;45.550;12.070;2022-12-18T21:24:56;30.35;;;21.75;;
49147;SDS011;41980;45.550;12.070;2022-12-18T21:31:02;30.98;;;21.35;;
49147;SDS011;41980;45.550;12.070;2022-12-18T21:37:06;34.22;;;24.13;;
49147;SDS011;41980;45.550;12.070;2022-12-18T21:43:08;35.35;;;26.02;;
49147;SDS011;41980;45.550;12.070;2022-12-18T21:49:28;29.98;;;20.98;;
49147;SDS011;41980;45.550;12.070;2022-12-18T21:55:31;23.15;;;15.98;;
49147;SDS011;41980;45.550;12.070;2022-12-18T22:07:34;26.17;;;18.45;;
49147;SDS011;41980;45.550;12.070;2022-12-18T22:13:37;27.90;;;19.70;;
49147;SDS011;41980;45.550;12.070;2022-12-18T22:19:39;29.85;;;19.33;;
49147;SDS011;41980;45.550;12.070;2022-12-18T22:25:41;23.98;;;15.18;;
49147;SDS011;41980;45.550;12.070;2022-12-18T22:31:43;33.25;;;22.38;;
49147;SDS011;41980;45.550;12.070;2022-12-18T22:37:48;28.60;;;20.55;;
49147;SDS011;41980;45.550;12.070;2022-12-18T22:43:56;30.35;;;21.52;;
49147;SDS011;41980;45.550;12.070;2022-12-18T22:50:01;25.45;;;17.35;;
49147;SDS011;41980;45.550;12.070;2022-12-18T22:56:16;22.15;;;16.85;;
49147;SDS011;41980;45.550;12.070;2022-12-18T23:02:20;31.25;;;21.33;;
49147;SDS011;41980;45.550;12.070;2022-12-18T23:08:23;31.80;;;21.23;;
49147;SDS011;41980;45.550;12.070;2022-12-18T23:14:55;22.03;;;14.47;;
49147;SDS011;41980;45.550;12.070;2022-12-18T23:21:44;25.10;;;15.73;;
49147;SDS011;41980;45.550;12.070;2022-12-18T23:28:18;18.42;;;13.40;;
49147;SDS011;41980;45.550;12.070;2022-12-18T23:40:22;21.27;;;14.87;;
49147;SDS011;41980;45.550;12.070;2022-12-18T23:46:36;23.15;;;15.60;;
49147;SDS011;41980;45.550;12.070;2022-12-18T23:58:40;19.48;;;13.60;;
